Hlavní strana
METAR-TAF:

METAR-TAF

Letiště :

Vardø, Norsko

zeměpisná šířka: 70-21N, zeměpisná délka: 031-03E, výška: 12 m

Aktuální stav počasí

Zpráva byla vytvořena před 12 hodinami a 34 minutami, v 20:50 UTC
Severozápadní vítr 18 kt
Teplota -2°C
Vlhkost vzduchu 69%
Tlak 1001 hPa
Viditelnost 10 km a více
Oblačno až skoro zataženo ve výšce 3000 ft
slabé sněžení

METAR: ENSS 152050Z 32018KT 9999 -SN BKN030 M02/M07 Q1001 RMK WIND 500FT 33022KT

Čas: 10:24 (09:24 UTC)


TAF: chybějící

Stav a předpovědi počasí z více než 4 000 letišť (zprávy METAR a TAF).

Červené a žluté tečky na mapě představují dostupné meteorologické stanice.

Když kurzor umístíte na tečku, zobrazí se název stanice.

Pak kliknutím zobrazíte stav a předpověď počasí.

Chcete-li změnit mapu, kliknutím na zelené tlačítko se znaménkem +mapu přiblížíte, kliknutím na zelené tlačítko se znaménkem – mapu oddálíte a kliknutím na zelené šipky přejdete na sousední mapy.


METAR-TAF: